SWR9PZ LFMN-LSZH
Flight info
| Callsign | SWR9PZ |
|---|---|
| Flight time | 0h 50m |
| Altitude | 30000 |
| Route | IRMAR DCT KINES DCT VANAS DCT MOBLO DCT UBIMA DCT SOSAL DCT KORED N871 BERSU |
| Aircraft | A321/M-SDE3FGHIRWY/LB1 |
Departure
| Time | 2026-05-08 06:03 |
|---|---|
| Airport | Nice-Côte d'Azur Airport (LFMN) |
Arrival
| Time | 2026-05-08 06:54 |
|---|---|
| Airport | Zürich Airport (LSZH) |
| Time | Latitude | Longitude | Altitude | Speed | Heading |
|---|---|---|---|---|---|
| 2026-05-08 05:34 | 43.66566 | 7.21617 | 23 ft | 0 kts | 315° |
| 2026-05-08 05:54 | 43.66554 | 7.21634 | 21 ft | 4 kts | 315° |
| 2026-05-08 05:54 | 43.66539 | 7.21654 | 21 ft | 4 kts | 312° |
| 2026-05-08 05:54 | 43.66527 | 7.21682 | 21 ft | 4 kts | 260° |
| 2026-05-08 05:55 | 43.66539 | 7.21707 | 21 ft | 4 kts | 225° |
| 2026-05-08 05:55 | 43.66544 | 7.21715 | 21 ft | 0 kts | 225° |
| 2026-05-08 05:57 | 43.66526 | 7.21690 | 21 ft | 10 kts | 224° |
| 2026-05-08 05:57 | 43.66469 | 7.21611 | 21 ft | 11 kts | 225° |
| 2026-05-08 05:57 | 43.66413 | 7.21539 | 21 ft | 12 kts | 211° |
| 2026-05-08 05:58 | 43.66318 | 7.21596 | 21 ft | 17 kts | 163° |
| 2026-05-08 05:58 | 43.66225 | 7.21519 | 21 ft | 16 kts | 225° |
| 2026-05-08 05:58 | 43.66150 | 7.21416 | 21 ft | 15 kts | 225° |
| 2026-05-08 05:58 | 43.66079 | 7.21317 | 21 ft | 15 kts | 225° |
| 2026-05-08 05:59 | 43.65996 | 7.21204 | 21 ft | 17 kts | 225° |
| 2026-05-08 05:59 | 43.65916 | 7.21094 | 21 ft | 16 kts | 224° |
| 2026-05-08 05:59 | 43.65840 | 7.20990 | 21 ft | 15 kts | 225° |
| 2026-05-08 05:59 | 43.65768 | 7.20895 | 21 ft | 14 kts | 213° |
| 2026-05-08 06:00 | 43.65671 | 7.20892 | 21 ft | 18 kts | 171° |
| 2026-05-08 06:00 | 43.65532 | 7.20923 | 23 ft | 20 kts | 171° |
| 2026-05-08 06:00 | 43.65397 | 7.20952 | 21 ft | 18 kts | 173° |
| 2026-05-08 06:00 | 43.65294 | 7.20878 | 22 ft | 17 kts | 223° |
| 2026-05-08 06:01 | 43.65210 | 7.20764 | 21 ft | 18 kts | 224° |
| 2026-05-08 06:01 | 43.65122 | 7.20642 | 21 ft | 17 kts | 225° |
| 2026-05-08 06:01 | 43.65039 | 7.20526 | 21 ft | 17 kts | 225° |
| 2026-05-08 06:01 | 43.64960 | 7.20418 | 22 ft | 15 kts | 225° |
| 2026-05-08 06:02 | 43.64885 | 7.20316 | 22 ft | 15 kts | 225° |
| 2026-05-08 06:02 | 43.64803 | 7.20276 | 22 ft | 11 kts | 158° |
| 2026-05-08 06:02 | 43.64768 | 7.20346 | 23 ft | 9 kts | 96° |
| 2026-05-08 06:02 | 43.64816 | 7.20446 | 24 ft | 23 kts | 45° |
| 2026-05-08 06:03 | 43.65104 | 7.20837 | 22 ft | 92 kts | 44° |
| 2026-05-08 06:03 | 43.65697 | 7.21649 | 23 ft | 146 kts | 44° |
| 2026-05-08 06:03 | 43.66474 | 7.22771 | 298 ft | 163 kts | 46° |
| 2026-05-08 06:03 | 43.67081 | 7.24060 | 945 ft | 165 kts | 76° |
| 2026-05-08 06:04 | 43.66957 | 7.25630 | 1455 ft | 171 kts | 112° |
| 2026-05-08 06:04 | 43.66205 | 7.27016 | 1694 ft | 192 kts | 134° |
| 2026-05-08 06:04 | 43.65237 | 7.28399 | 1867 ft | 213 kts | 133° |
| 2026-05-08 06:04 | 43.64197 | 7.29936 | 2240 ft | 222 kts | 131° |
| 2026-05-08 06:05 | 43.63451 | 7.31801 | 2859 ft | 221 kts | 101° |
| 2026-05-08 06:05 | 43.63558 | 7.33882 | 3487 ft | 220 kts | 71° |
| 2026-05-08 06:05 | 43.64065 | 7.35830 | 4159 ft | 218 kts | 70° |
| 2026-05-08 06:05 | 43.64581 | 7.37797 | 4809 ft | 218 kts | 71° |
| 2026-05-08 06:06 | 43.65095 | 7.39769 | 5417 ft | 219 kts | 71° |
| 2026-05-08 06:06 | 43.65609 | 7.41747 | 6027 ft | 220 kts | 71° |
| 2026-05-08 06:06 | 43.66125 | 7.43741 | 6606 ft | 221 kts | 71° |
| 2026-05-08 06:06 | 43.66653 | 7.45750 | 7129 ft | 225 kts | 68° |
| 2026-05-08 06:07 | 43.67600 | 7.47572 | 7310 ft | 248 kts | 39° |
| 2026-05-08 06:07 | 43.69262 | 7.48487 | 7540 ft | 273 kts | 4° |
| 2026-05-08 06:07 | 43.71126 | 7.47885 | 8100 ft | 284 kts | 329° |
| 2026-05-08 06:07 | 43.72499 | 7.45919 | 8775 ft | 291 kts | 299° |
| 2026-05-08 06:08 | 43.73327 | 7.43355 | 9512 ft | 294 kts | 289° |
| 2026-05-08 06:08 | 43.73941 | 7.40631 | 9912 ft | 298 kts | 285° |
| 2026-05-08 06:08 | 43.74474 | 7.37866 | 9991 ft | 298 kts | 284° |
| 2026-05-08 06:08 | 43.75125 | 7.35122 | 10143 ft | 309 kts | 298° |
| 2026-05-08 06:09 | 43.76487 | 7.32717 | 10293 ft | 330 kts | 319° |
| 2026-05-08 06:09 | 43.78297 | 7.30602 | 10431 ft | 352 kts | 321° |
| 2026-05-08 06:09 | 43.80222 | 7.28407 | 10843 ft | 363 kts | 321° |
| 2026-05-08 06:09 | 43.82185 | 7.26184 | 11479 ft | 367 kts | 321° |
| 2026-05-08 06:10 | 43.84171 | 7.23930 | 12119 ft | 371 kts | 321° |
| 2026-05-08 06:10 | 43.86169 | 7.21649 | 12797 ft | 374 kts | 320° |
| 2026-05-08 06:10 | 43.88183 | 7.19342 | 13464 ft | 377 kts | 320° |
| 2026-05-08 06:10 | 43.90208 | 7.17016 | 14083 ft | 380 kts | 320° |
| 2026-05-08 06:11 | 43.92258 | 7.14658 | 14637 ft | 383 kts | 319° |
| 2026-05-08 06:11 | 43.94315 | 7.12287 | 15209 ft | 386 kts | 319° |
| 2026-05-08 06:11 | 43.96384 | 7.09899 | 15798 ft | 388 kts | 319° |
| 2026-05-08 06:11 | 43.98467 | 7.07495 | 16375 ft | 391 kts | 319° |
| 2026-05-08 06:12 | 44.00564 | 7.05070 | 16941 ft | 394 kts | 319° |
| 2026-05-08 06:12 | 44.01960 | 7.03454 | 17325 ft | 396 kts | 319° |
| 2026-05-08 06:12 | 44.04081 | 7.00991 | 17876 ft | 398 kts | 318° |
| 2026-05-08 06:12 | 44.06213 | 6.98515 | 18413 ft | 401 kts | 318° |
| 2026-05-08 06:13 | 44.08363 | 6.96019 | 18856 ft | 404 kts | 318° |
| 2026-05-08 06:13 | 44.10521 | 6.93509 | 19340 ft | 406 kts | 318° |
| 2026-05-08 06:13 | 44.12831 | 6.91212 | 19793 ft | 410 kts | 328° |
| 2026-05-08 06:13 | 44.15419 | 6.89511 | 20238 ft | 415 kts | 338° |
| 2026-05-08 06:14 | 44.18227 | 6.88478 | 20681 ft | 420 kts | 349° |
| 2026-05-08 06:14 | 44.21143 | 6.88008 | 21101 ft | 423 kts | 352° |
| 2026-05-08 06:14 | 44.24077 | 6.87578 | 21577 ft | 425 kts | 352° |
| 2026-05-08 06:14 | 44.27021 | 6.87137 | 22037 ft | 427 kts | 352° |
| 2026-05-08 06:15 | 44.29980 | 6.86687 | 22485 ft | 429 kts | 351° |
| 2026-05-08 06:15 | 44.32952 | 6.86233 | 22933 ft | 431 kts | 351° |
| 2026-05-08 06:15 | 44.35943 | 6.85778 | 23378 ft | 433 kts | 351° |
| 2026-05-08 06:15 | 44.38947 | 6.85319 | 23790 ft | 436 kts | 351° |
| 2026-05-08 06:16 | 44.41973 | 6.84854 | 24150 ft | 438 kts | 351° |
| 2026-05-08 06:16 | 44.45016 | 6.84386 | 24456 ft | 441 kts | 351° |
| 2026-05-08 06:16 | 44.48081 | 6.83918 | 24770 ft | 445 kts | 351° |
| 2026-05-08 06:16 | 44.51166 | 6.83449 | 25095 ft | 448 kts | 351° |
| 2026-05-08 06:17 | 44.57405 | 6.82504 | 25764 ft | 454 kts | 351° |
| 2026-05-08 06:17 | 44.60553 | 6.82025 | 26074 ft | 457 kts | 351° |
| 2026-05-08 06:17 | 44.63727 | 6.81542 | 26365 ft | 460 kts | 351° |
| 2026-05-08 06:18 | 44.66913 | 6.81053 | 26668 ft | 463 kts | 351° |
| 2026-05-08 06:18 | 44.70125 | 6.80556 | 26955 ft | 465 kts | 350° |
| 2026-05-08 06:18 | 44.73355 | 6.80057 | 27251 ft | 468 kts | 351° |
| 2026-05-08 06:18 | 44.76600 | 6.79558 | 27526 ft | 471 kts | 350° |
| 2026-05-08 06:19 | 44.79869 | 6.79060 | 27826 ft | 474 kts | 351° |
| 2026-05-08 06:19 | 44.83168 | 6.78655 | 28108 ft | 478 kts | 353° |
| 2026-05-08 06:19 | 44.86497 | 6.78384 | 28366 ft | 481 kts | 354° |
| 2026-05-08 06:19 | 44.89851 | 6.78205 | 28633 ft | 484 kts | 355° |
| 2026-05-08 06:20 | 44.93227 | 6.78068 | 28875 ft | 487 kts | 355° |
| 2026-05-08 06:20 | 44.96613 | 6.77928 | 29226 ft | 487 kts | 354° |
| 2026-05-08 06:20 | 44.99994 | 6.77759 | 29551 ft | 487 kts | 354° |
| 2026-05-08 06:20 | 45.03380 | 6.77554 | 29901 ft | 487 kts | 353° |
| 2026-05-08 06:21 | 45.06763 | 6.77322 | 30060 ft | 484 kts | 353° |
| 2026-05-08 06:21 | 45.10093 | 6.77085 | 30071 ft | 476 kts | 353° |
| 2026-05-08 06:21 | 45.16675 | 6.76616 | 30070 ft | 472 kts | 353° |
| 2026-05-08 06:22 | 45.23239 | 6.76174 | 30064 ft | 472 kts | 353° |
| 2026-05-08 06:22 | 45.29802 | 6.75744 | 30072 ft | 472 kts | 353° |
| 2026-05-08 06:23 | 45.36366 | 6.75315 | 30063 ft | 472 kts | 353° |
| 2026-05-08 06:23 | 45.42929 | 6.74879 | 30070 ft | 472 kts | 353° |
| 2026-05-08 06:24 | 45.49488 | 6.74440 | 30066 ft | 471 kts | 353° |
| 2026-05-08 06:24 | 45.56039 | 6.73988 | 30053 ft | 471 kts | 353° |
| 2026-05-08 06:25 | 45.62585 | 6.73525 | 30066 ft | 471 kts | 353° |
| 2026-05-08 06:25 | 45.69129 | 6.73066 | 30056 ft | 471 kts | 353° |
| 2026-05-08 06:26 | 45.75673 | 6.72624 | 30055 ft | 470 kts | 353° |
| 2026-05-08 06:26 | 45.82209 | 6.72181 | 30063 ft | 470 kts | 352° |
| 2026-05-08 06:27 | 45.88731 | 6.71750 | 30065 ft | 469 kts | 352° |
| 2026-05-08 06:27 | 45.95207 | 6.71310 | 30055 ft | 469 kts | 352° |
| 2026-05-08 06:28 | 46.01727 | 6.70858 | 30059 ft | 469 kts | 352° |
| 2026-05-08 06:28 | 46.08233 | 6.70410 | 30048 ft | 468 kts | 352° |
| 2026-05-08 06:29 | 46.14769 | 6.71075 | 30046 ft | 478 kts | 8° |
| 2026-05-08 06:29 | 46.21185 | 6.73728 | 30041 ft | 480 kts | 12° |
| 2026-05-08 06:30 | 46.27597 | 6.76440 | 30033 ft | 480 kts | 12° |
| 2026-05-08 06:30 | 46.34013 | 6.79150 | 30025 ft | 480 kts | 12° |
| 2026-05-08 06:31 | 46.40424 | 6.81872 | 30041 ft | 480 kts | 12° |
| 2026-05-08 06:31 | 46.46870 | 6.84618 | 30044 ft | 479 kts | 12° |
| 2026-05-08 06:32 | 46.53111 | 6.87902 | 30035 ft | 485 kts | 24° |
| 2026-05-08 06:32 | 46.58605 | 6.93756 | 30044 ft | 491 kts | 44° |
| 2026-05-08 06:33 | 46.60831 | 6.97449 | 29842 ft | 493 kts | 50° |
| 2026-05-08 06:33 | 46.62986 | 7.01335 | 29556 ft | 493 kts | 50° |
| 2026-05-08 06:33 | 46.65167 | 7.05274 | 29267 ft | 493 kts | 50° |
| 2026-05-08 06:33 | 46.67306 | 7.09142 | 28668 ft | 490 kts | 50° |
| 2026-05-08 06:34 | 46.69413 | 7.12954 | 27982 ft | 488 kts | 50° |
| 2026-05-08 06:34 | 46.71560 | 7.16844 | 27282 ft | 485 kts | 51° |
| 2026-05-08 06:34 | 46.73671 | 7.20670 | 26588 ft | 483 kts | 51° |
| 2026-05-08 06:34 | 46.75770 | 7.24477 | 25898 ft | 480 kts | 51° |
| 2026-05-08 06:35 | 46.77855 | 7.28268 | 25227 ft | 477 kts | 51° |
| 2026-05-08 06:35 | 46.79896 | 7.31985 | 24574 ft | 474 kts | 51° |
| 2026-05-08 06:35 | 46.81950 | 7.35732 | 23908 ft | 471 kts | 51° |
| 2026-05-08 06:35 | 46.83973 | 7.39422 | 23203 ft | 459 kts | 51° |
| 2026-05-08 06:36 | 46.85931 | 7.43003 | 22635 ft | 445 kts | 51° |
| 2026-05-08 06:36 | 46.87848 | 7.46520 | 22088 ft | 439 kts | 51° |
| 2026-05-08 06:36 | 46.89731 | 7.49983 | 21580 ft | 432 kts | 51° |
| 2026-05-08 06:36 | 46.91591 | 7.53403 | 21084 ft | 426 kts | 51° |
| 2026-05-08 06:37 | 46.93418 | 7.56777 | 20587 ft | 420 kts | 52° |
| 2026-05-08 06:37 | 46.95215 | 7.60103 | 20129 ft | 414 kts | 52° |
| 2026-05-08 06:37 | 46.96989 | 7.63384 | 19669 ft | 408 kts | 52° |
| 2026-05-08 06:37 | 46.98735 | 7.66615 | 19223 ft | 402 kts | 52° |
| 2026-05-08 06:38 | 47.00460 | 7.69806 | 18784 ft | 397 kts | 52° |
| 2026-05-08 06:38 | 47.02164 | 7.72955 | 18343 ft | 392 kts | 52° |
| 2026-05-08 06:38 | 47.03851 | 7.76078 | 17796 ft | 389 kts | 52° |
| 2026-05-08 06:38 | 47.05518 | 7.79165 | 17367 ft | 384 kts | 52° |
| 2026-05-08 06:39 | 47.07163 | 7.82212 | 16934 ft | 379 kts | 52° |
| 2026-05-08 06:39 | 47.08789 | 7.85231 | 16485 ft | 375 kts | 52° |
| 2026-05-08 06:39 | 47.10395 | 7.88222 | 16045 ft | 371 kts | 52° |
| 2026-05-08 06:39 | 47.11981 | 7.91184 | 15596 ft | 368 kts | 52° |
| 2026-05-08 06:40 | 47.13481 | 7.94214 | 15135 ft | 365 kts | 58° |
| 2026-05-08 06:40 | 47.14643 | 7.97511 | 14666 ft | 363 kts | 65° |
| 2026-05-08 06:40 | 47.15707 | 8.00859 | 14215 ft | 361 kts | 65° |
| 2026-05-08 06:40 | 47.16767 | 8.04190 | 13739 ft | 359 kts | 65° |
| 2026-05-08 06:41 | 47.17826 | 8.07507 | 13234 ft | 357 kts | 65° |
| 2026-05-08 06:41 | 47.18879 | 8.10801 | 12742 ft | 356 kts | 65° |
| 2026-05-08 06:41 | 47.19929 | 8.14094 | 12164 ft | 356 kts | 65° |
| 2026-05-08 06:41 | 47.21135 | 8.17269 | 11609 ft | 356 kts | 51° |
| 2026-05-08 06:42 | 47.22987 | 8.19657 | 11021 ft | 355 kts | 28° |
| 2026-05-08 06:42 | 47.25285 | 8.20842 | 10678 ft | 346 kts | 6° |
| 2026-05-08 06:42 | 47.27621 | 8.20775 | 10553 ft | 328 kts | 346° |
| 2026-05-08 06:42 | 47.29702 | 8.19653 | 10423 ft | 312 kts | 331° |
| 2026-05-08 06:43 | 47.31607 | 8.18247 | 10308 ft | 300 kts | 330° |
| 2026-05-08 06:43 | 47.33446 | 8.16880 | 10059 ft | 293 kts | 330° |
| 2026-05-08 06:43 | 47.35252 | 8.15533 | 9906 ft | 290 kts | 330° |
| 2026-05-08 06:43 | 47.37049 | 8.14188 | 9744 ft | 289 kts | 330° |
| 2026-05-08 06:44 | 47.38910 | 8.13055 | 9557 ft | 292 kts | 345° |
| 2026-05-08 06:44 | 47.40941 | 8.12901 | 9328 ft | 294 kts | 0° |
| 2026-05-08 06:44 | 47.42979 | 8.13055 | 9091 ft | 293 kts | 1° |
| 2026-05-08 06:44 | 47.45015 | 8.13220 | 8853 ft | 292 kts | 1° |
| 2026-05-08 06:45 | 47.47039 | 8.13388 | 8620 ft | 291 kts | 1° |
| 2026-05-08 06:45 | 47.49055 | 8.13557 | 8389 ft | 289 kts | 1° |
| 2026-05-08 06:45 | 47.51062 | 8.13721 | 8158 ft | 288 kts | 1° |
| 2026-05-08 06:45 | 47.53061 | 8.13879 | 7932 ft | 287 kts | 1° |
| 2026-05-08 06:46 | 47.55046 | 8.14032 | 7708 ft | 285 kts | 1° |
| 2026-05-08 06:46 | 47.57021 | 8.14184 | 7483 ft | 284 kts | 1° |
| 2026-05-08 06:46 | 47.58991 | 8.14339 | 7259 ft | 282 kts | 2° |
| 2026-05-08 06:46 | 47.60892 | 8.14884 | 7057 ft | 275 kts | 18° |
| 2026-05-08 06:47 | 47.62589 | 8.16080 | 6881 ft | 267 kts | 32° |
| 2026-05-08 06:47 | 47.63993 | 8.17792 | 6739 ft | 256 kts | 46° |
| 2026-05-08 06:47 | 47.65188 | 8.19715 | 6559 ft | 251 kts | 47° |
| 2026-05-08 06:47 | 47.66360 | 8.21593 | 6385 ft | 244 kts | 49° |
| 2026-05-08 06:48 | 47.67169 | 8.23709 | 6202 ft | 231 kts | 76° |
| 2026-05-08 06:48 | 47.67253 | 8.25963 | 6079 ft | 210 kts | 101° |
| 2026-05-08 06:48 | 47.66749 | 8.27910 | 5999 ft | 199 kts | 124° |
| 2026-05-08 06:48 | 47.65845 | 8.29389 | 5993 ft | 196 kts | 140° |
| 2026-05-08 06:49 | 47.64844 | 8.30766 | 5830 ft | 196 kts | 139° |
| 2026-05-08 06:49 | 47.63851 | 8.32135 | 5598 ft | 194 kts | 139° |
| 2026-05-08 06:49 | 47.62867 | 8.33493 | 5346 ft | 192 kts | 139° |
| 2026-05-08 06:49 | 47.61894 | 8.34833 | 5092 ft | 190 kts | 139° |
| 2026-05-08 06:50 | 47.60930 | 8.36160 | 4847 ft | 188 kts | 139° |
| 2026-05-08 06:50 | 47.59972 | 8.37477 | 4590 ft | 188 kts | 138° |
| 2026-05-08 06:50 | 47.59014 | 8.38794 | 4336 ft | 187 kts | 138° |
| 2026-05-08 06:50 | 47.58062 | 8.40102 | 4075 ft | 186 kts | 137° |
| 2026-05-08 06:51 | 47.57114 | 8.41404 | 3827 ft | 186 kts | 137° |
| 2026-05-08 06:51 | 47.56166 | 8.42706 | 3581 ft | 186 kts | 136° |
| 2026-05-08 06:51 | 47.55220 | 8.44003 | 3346 ft | 185 kts | 136° |
| 2026-05-08 06:51 | 47.54293 | 8.45275 | 3099 ft | 173 kts | 136° |
| 2026-05-08 06:52 | 47.53457 | 8.46419 | 2870 ft | 156 kts | 135° |
| 2026-05-08 06:52 | 47.52680 | 8.47484 | 2664 ft | 150 kts | 135° |
| 2026-05-08 06:52 | 47.51923 | 8.48522 | 2458 ft | 148 kts | 135° |
| 2026-05-08 06:52 | 47.51170 | 8.49553 | 2254 ft | 147 kts | 135° |
| 2026-05-08 06:53 | 47.50418 | 8.50583 | 2053 ft | 148 kts | 136° |
| 2026-05-08 06:53 | 47.49666 | 8.51624 | 1824 ft | 148 kts | 135° |
| 2026-05-08 06:53 | 47.48919 | 8.52675 | 1619 ft | 149 kts | 136° |
| 2026-05-08 06:53 | 47.48154 | 8.53706 | 1453 ft | 149 kts | 139° |
| 2026-05-08 06:54 | 47.47424 | 8.54671 | 1403 ft | 127 kts | 136° |
| 2026-05-08 06:54 | 47.46929 | 8.55357 | 1388 ft | 72 kts | 137° |
| 2026-05-08 06:54 | 47.46672 | 8.55707 | 1399 ft | 40 kts | 137° |
| 2026-05-08 06:54 | 47.46496 | 8.55900 | 1398 ft | 29 kts | 156° |
| 2026-05-08 06:55 | 47.46330 | 8.55973 | 1403 ft | 20 kts | 167° |
| 2026-05-08 06:55 | 47.46205 | 8.56002 | 1410 ft | 16 kts | 179° |
| 2026-05-08 06:55 | 47.46134 | 8.55995 | 1407 ft | 15 kts | 186° |
| 2026-05-08 06:55 | 47.46007 | 8.55976 | 1406 ft | 14 kts | 186° |
| 2026-05-08 06:56 | 47.45947 | 8.55955 | 1413 ft | 13 kts | 199° |
| 2026-05-08 06:56 | 47.45873 | 8.55915 | 1411 ft | 9 kts | 198° |
| 2026-05-08 06:56 | 47.45808 | 8.55886 | 1412 ft | 16 kts | 194° |
| 2026-05-08 06:56 | 47.45656 | 8.55859 | 1408 ft | 21 kts | 186° |
| 2026-05-08 06:57 | 47.45554 | 8.55842 | 1408 ft | 14 kts | 187° |
| 2026-05-08 06:57 | 47.45484 | 8.55813 | 1410 ft | 9 kts | 189° |
| 2026-05-08 06:57 | 47.45433 | 8.55805 | 1410 ft | 3 kts | 186° |
| 2026-05-08 06:57 | 47.45430 | 8.55804 | 1407 ft | 0 kts | 186° |